Time;durP1;ratioP1;P1;durP2;ratioP2;P2;SDS_P1;SDS_P2;PMS_P1;PMS_P2;Temp;Humidity;BMP_temperature;BMP_pressure;BME280_temperature;BME280_humidity;BME280_pressure;Samples;Min_cycle;Max_cycle;Signal;HPM_P1;HPM_P2
2023/09/10 00:00:35;;;;;;;76.07;66.78;;;19.50;86.50;;;;;;5032735;28;20234;-88
2023/09/10 00:03:00;;;;;;;82.60;68.30;;;19.50;86.40;;;;;;5032259;28;20547;-88
2023/09/10 00:05:26;;;;;;;86.72;73.50;;;19.40;86.30;;;;;;5033580;28;20172;-88
2023/09/10 00:07:52;;;;;;;83.35;70.65;;;19.40;86.30;;;;;;5033837;28;20165;-88
2023/09/10 00:10:18;;;;;;;90.25;75.53;;;19.30;86.30;;;;;;5032401;28;20176;-88
2023/09/10 00:12:43;;;;;;;97.68;80.47;;;19.40;86.40;;;;;;5033402;28;20185;-87
2023/09/10 00:15:09;;;;;;;100.50;80.18;;;19.30;86.40;;;;;;5032442;28;20660;-88
2023/09/10 00:17:34;;;;;;;100.03;83.00;;;19.30;86.60;;;;;;5032315;28;20651;-88
2023/09/10 00:20:00;;;;;;;98.65;79.60;;;19.30;86.60;;;;;;5032320;28;20232;-88
2023/09/10 00:22:25;;;;;;;111.80;87.60;;;19.30;86.50;;;;;;5033646;28;20164;-88
2023/09/10 00:24:51;;;;;;;110.68;84.10;;;19.30;86.60;;;;;;5032164;28;20310;-88
2023/09/10 00:27:16;;;;;;;110.00;87.30;;;19.30;86.70;;;;;;5033152;28;20279;-88
2023/09/10 00:29:42;;;;;;;100.40;81.32;;;19.30;86.80;;;;;;5032163;28;25083;-88
2023/09/10 00:32:07;;;;;;;102.53;83.47;;;19.20;86.90;;;;;;5032470;28;20231;-88
2023/09/10 00:34:33;;;;;;;97.15;81.70;;;19.20;86.80;;;;;;5032057;28;20200;-88
2023/09/10 00:37:00;;;;;;;101.13;80.72;;;19.20;87.00;;;;;;5032271;28;20176;-87
2023/09/10 00:39:25;;;;;;;110.10;87.22;;;19.10;86.90;;;;;;5032316;28;20570;-88
2023/09/10 00:41:54;;;;;;;124.63;94.45;;;19.00;87.00;;;;;;5032148;28;20172;-88
2023/09/10 00:44:23;;;;;;;120.68;94.95;;;19.00;87.70;;;;;;5032052;28;20192;-88
2023/09/10 00:46:53;;;;;;;116.65;94.30;;;19.00;88.00;;;;;;5032029;28;20652;-88
2023/09/10 00:49:19;;;;;;;122.10;96.88;;;19.00;87.90;;;;;;5031958;28;20207;-88
2023/09/10 00:51:46;;;;;;;121.90;96.10;;;19.00;87.80;;;;;;5032058;28;20211;-88
2023/09/10 00:54:13;;;;;;;126.20;99.40;;;19.00;87.80;;;;;;5032089;28;20580;-88
2023/09/10 00:56:39;;;;;;;128.02;98.88;;;19.00;87.90;;;;;;5032020;28;20185;-87
2023/09/10 00:59:04;;;;;;;131.65;107.97;;;19.00;87.80;;;;;;5032873;28;20200;-88
2023/09/10 01:01:30;;;;;;;131.30;108.00;;;19.00;87.90;;;;;;5031930;28;20195;-87
2023/09/10 01:03:56;;;;;;;132.95;109.70;;;18.90;87.80;;;;;;5032909;28;20222;-87
2023/09/10 01:06:22;;;;;;;125.20;98.47;;;19.00;87.70;;;;;;5033527;28;20663;-87
2023/09/10 01:08:48;;;;;;;130.27;99.93;;;19.00;87.70;;;;;;5032075;28;20183;-88
2023/09/10 01:11:30;;;;;;;130.60;100.78;;;18.90;87.60;;;;;;5031771;28;20192;-87
2023/09/10 01:14:12;;;;;;;128.52;99.90;;;18.90;87.60;;;;;;5031857;28;20205;-88
2023/09/10 01:16:58;;;;;;;138.57;107.15;;;18.90;87.60;;;;;;5032007;28;20202;-87
2023/09/10 01:19:49;;;;;;;143.85;105.93;;;18.90;88.10;;;;;;5032922;28;20225;-87
2023/09/10 01:22:55;;;;;;;122.95;96.35;;;18.80;88.80;;;;;;5031730;28;20165;-88
2023/09/10 01:25:22;;;;;;;104.22;85.68;;;18.80;88.80;;;;;;5031574;28;20624;-88
2023/09/10 01:27:47;;;;;;;111.82;88.53;;;18.80;88.50;;;;;;5032703;28;20173;-88
2023/09/10 01:30:13;;;;;;;101.38;80.70;;;18.70;88.10;;;;;;5032674;28;20678;-89
2023/09/10 01:32:51;;;;;;;168.27;78.95;;;18.50;87.90;;;;;;5031523;28;20209;-89
2023/09/10 01:35:51;;;;;;;197.80;81.65;;;18.40;88.10;;;;;;5032692;28;20294;-88
2023/09/10 01:38:40;;;;;;;100.73;79.80;;;18.30;88.50;;;;;;5025618;28;20192;-88
2023/09/10 01:41:17;;;;;;;90.63;72.70;;;18.40;88.30;;;;;;5029532;28;20185;-88
2023/09/10 01:43:44;;;;;;;96.57;79.75;;;18.40;88.10;;;;;;5032594;28;20739;-88
2023/09/10 01:46:10;;;;;;;108.13;85.50;;;18.50;88.00;;;;;;5031451;28;20180;-88
2023/09/10 01:48:36;;;;;;;109.87;86.97;;;18.50;87.90;;;;;;5032480;28;20181;-88
2023/09/10 01:51:02;;;;;;;104.40;84.07;;;18.50;87.80;;;;;;5033076;28;20180;-88
2023/09/10 01:53:28;;;;;;;100.10;80.80;;;18.50;87.90;;;;;;5036058;28;20231;-88
2023/09/10 01:55:54;;;;;;;95.25;79.43;;;18.50;87.90;;;;;;5035958;28;20180;-88
2023/09/10 01:58:19;;;;;;;105.43;88.20;;;18.50;87.70;;;;;;5034702;28;20795;-89
2023/09/10 02:00:45;;;;;;;112.80;90.90;;;18.40;87.80;;;;;;5034762;28;20259;-88
2023/09/10 02:03:11;;;;;;;135.30;102.47;;;18.40;87.80;;;;;;5034375;28;20193;-88
2023/09/10 02:05:37;;;;;;;136.10;101.90;;;18.40;87.90;;;;;;5035030;28;20653;-88
2023/09/10 02:08:03;;;;;;;134.38;104.07;;;18.40;87.90;;;;;;5035873;28;20180;-88
2023/09/10 02:10:31;;;;;;;136.60;103.22;;;18.50;88.70;;;;;;5035676;28;20186;-88
2023/09/10 02:12:57;;;;;;;133.38;102.68;;;18.40;89.20;;;;;;5035686;28;20188;-88
2023/09/10 02:15:22;;;;;;;127.88;100.53;;;18.40;89.50;;;;;;5034323;28;20181;-88
2023/09/10 02:17:48;;;;;;;124.07;97.18;;;18.50;89.90;;;;;;5034432;28;20168;-88
2023/09/10 02:20:13;;;;;;;127.30;99.28;;;18.50;90.10;;;;;;5035579;28;20205;-88
2023/09/10 02:22:40;;;;;;;126.32;99.13;;;18.50;90.20;;;;;;5034224;28;19928;-88
2023/09/10 02:25:07;;;;;;;149.10;108.55;;;18.50;90.30;;;;;;5034198;28;20250;-88
2023/09/10 02:27:35;;;;;;;143.45;102.15;;;18.60;90.40;;;;;;5035150;28;20184;-88
2023/09/10 02:30:00;;;;;;;146.73;103.97;;;18.70;90.60;;;;;;5034259;28;20141;-88
2023/09/10 02:32:26;;;;;;;151.27;105.80;;;18.70;90.50;;;;;;5035578;28;20169;-88
2023/09/10 02:34:51;;;;;;;;;;;18.80;90.60;;;;;;5034282;28;20192;-88
2023/09/10 02:37:17;;;;;;;157.00;107.60;;;18.80;90.60;;;;;;5035436;28;19912;-88
2023/09/10 02:39:43;;;;;;;;;;;18.90;90.70;;;;;;5034287;28;19943;-88
2023/09/10 02:42:08;;;;;;;155.40;108.65;;;19.00;90.70;;;;;;5034054;28;19905;-88
2023/09/10 02:44:34;;;;;;;141.10;105.30;;;18.90;90.70;;;;;;5035081;28;20032;-88
2023/09/10 02:46:59;;;;;;;151.18;100.18;;;18.90;90.70;;;;;;5033768;28;20231;-88
2023/09/10 02:49:25;;;;;;;139.93;98.03;;;18.90;90.70;;;;;;5035345;28;20177;-88
2023/09/10 02:51:51;;;;;;;142.97;96.30;;;19.00;90.70;;;;;;5035059;28;20207;-87
2023/09/10 02:54:16;;;;;;;153.40;99.68;;;19.00;90.80;;;;;;5033634;28;20670;-88
2023/09/10 02:56:42;;;;;;;170.15;102.93;;;19.00;90.80;;;;;;5033633;28;20176;-88
2023/09/10 02:59:16;;;;;;;158.00;99.30;;;18.90;90.90;;;;;;5034783;28;20235;-88
2023/09/10 03:01:42;;;;;;;159.77;98.13;;;18.90;91.10;;;;;;5034534;28;20624;-88
2023/09/10 03:04:07;;;;;;;165.73;100.30;;;18.90;91.20;;;;;;5034907;28;20208;-88
2023/09/10 03:06:33;;;;;;;162.15;97.60;;;18.90;91.40;;;;;;5033450;28;20237;-88
2023/09/10 03:08:58;;;;;;;172.60;98.47;;;18.90;91.50;;;;;;5034797;28;20188;-88
2023/09/10 03:11:24;;;;;;;173.02;90.32;;;18.90;91.60;;;;;;5033361;28;20904;-88
2023/09/10 03:13:49;;;;;;;171.83;87.87;;;19.00;91.60;;;;;;5033314;28;20240;-88
2023/09/10 03:16:15;;;;;;;174.40;91.10;;;19.00;91.60;;;;;;5033330;28;20397;-88
2023/09/10 03:18:40;;;;;;;165.30;87.05;;;18.90;91.50;;;;;;5033261;28;20204;-88
2023/09/10 03:21:06;;;;;;;173.10;91.05;;;18.90;91.60;;;;;;5035158;28;20185;-88
2023/09/10 03:23:31;;;;;;;;;;;18.90;91.60;;;;;;5033706;28;19905;-88
2023/09/10 03:25:57;;;;;;;;;;;18.90;91.60;;;;;;5033676;28;19905;-88
2023/09/10 03:28:22;;;;;;;;;;;18.90;91.60;;;;;;5033681;28;19909;-87
2023/09/10 03:30:47;;;;;;;;;;;18.80;91.60;;;;;;5033643;28;20004;-87
2023/09/10 03:33:13;;;;;;;;;;;18.80;91.60;;;;;;5034692;28;20368;-87
2023/09/10 03:35:38;;;;;;;;;;;18.80;91.70;;;;;;5034795;28;20388;-88
2023/09/10 03:38:04;;;;;;;;;;;18.70;91.60;;;;;;5033369;28;20428;-87
2023/09/10 03:40:29;;;;;;;;;;;18.70;91.70;;;;;;5034503;28;19913;-88
2023/09/10 03:42:55;;;;;;;;;;;18.70;91.70;;;;;;5033313;28;19905;-87
2023/09/10 03:45:20;;;;;;;;;;;18.80;91.70;;;;;;5033570;28;20008;-87
2023/09/10 03:47:46;;;;;;;;;;;18.70;91.70;;;;;;5033334;28;19945;-88
2023/09/10 03:50:11;;;;;;;;;;;18.70;91.60;;;;;;5033270;28;20388;-87
2023/09/10 03:52:36;;;;;;;;;;;18.70;91.60;;;;;;5033318;28;20426;-88
2023/09/10 03:55:02;;;;;;;;;;;18.70;91.60;;;;;;5033072;28;19948;-87
2023/09/10 03:57:27;;;;;;;;;;;18.80;91.70;;;;;;5034346;28;20384;-87
2023/09/10 03:59:53;;;;;;;;;;;18.70;91.50;;;;;;5033555;28;19912;-88
2023/09/10 04:02:18;;;;;;;;;;;18.80;91.50;;;;;;5032887;28;20284;-88
2023/09/10 04:04:44;;;;;;;;;;;18.80;91.50;;;;;;5032642;28;20280;-88
2023/09/10 04:07:09;;;;;;;;;;;18.80;91.40;;;;;;5034151;28;20014;-88
2023/09/10 04:09:35;;;;;;;118.30;67.67;;;18.70;91.30;;;;;;5032505;28;19905;-88
2023/09/10 04:12:00;;;;;;;116.40;66.50;;;18.60;91.50;;;;;;5032411;28;20727;-88
2023/09/10 04:14:26;;;;;;;106.60;63.13;;;18.40;91.50;;;;;;5032286;28;20687;-88
2023/09/10 04:16:52;;;;;;;102.20;61.75;;;18.40;91.80;;;;;;5032334;28;20219;-88
2023/09/10 04:19:17;;;;;;;109.45;64.22;;;18.30;91.70;;;;;;5032229;28;20227;-91
2023/09/10 04:21:43;;;;;;;103.00;61.65;;;18.20;91.80;;;;;;5032159;28;20199;-88
2023/09/10 04:24:09;;;;;;;107.00;63.50;;;18.20;91.80;;;;;;5032241;28;20205;-88
2023/09/10 04:26:34;;;;;;;104.28;62.15;;;18.30;91.90;;;;;;5032135;28;20060;-88
2023/09/10 04:29:00;;;;;;;103.10;62.70;;;18.30;91.90;;;;;;5032171;28;20184;-87
2023/09/10 04:31:25;;;;;;;99.70;62.30;;;18.40;91.80;;;;;;5032235;28;20040;-88
2023/09/10 04:33:51;;;;;;;97.45;60.40;;;18.50;91.80;;;;;;5032252;28;20207;-88
2023/09/10 04:36:16;;;;;;;100.25;62.25;;;18.50;91.80;;;;;;5032204;28;20181;-87
2023/09/10 04:38:42;;;;;;;102.10;63.05;;;18.50;91.50;;;;;;5033332;28;20171;-88
2023/09/10 04:41:07;;;;;;;94.22;61.33;;;18.50;91.50;;;;;;5032054;28;20172;-89
2023/09/10 04:43:33;;;;;;;94.35;61.55;;;18.50;91.40;;;;;;5032189;28;20196;-88
2023/09/10 04:45:58;;;;;;;98.68;61.03;;;18.50;91.30;;;;;;5033667;28;20566;-89
2023/09/10 04:48:24;;;;;;;101.07;63.00;;;18.40;91.20;;;;;;5032694;28;20168;-87
2023/09/10 04:50:50;;;;;;;100.68;63.13;;;18.50;91.10;;;;;;5032825;28;20531;-88
2023/09/10 04:53:17;;;;;;;99.53;63.20;;;18.40;91.00;;;;;;5033399;28;20184;-87
2023/09/10 04:55:42;;;;;;;91.25;60.95;;;18.50;91.00;;;;;;5032059;28;20212;-87
2023/09/10 04:58:10;;;;;;;100.32;61.67;;;18.50;90.90;;;;;;5032135;28;20601;-87
2023/09/10 05:00:39;;;;;;;100.10;61.97;;;18.40;90.60;;;;;;5031753;28;20222;-87
2023/09/10 05:03:05;;;;;;;96.95;61.80;;;18.20;90.70;;;;;;5032961;28;20271;-87
2023/09/10 05:05:30;;;;;;;99.00;62.55;;;18.30;90.80;;;;;;5033477;28;20196;-88
2023/09/10 05:07:56;;;;;;;107.22;65.47;;;18.20;90.80;;;;;;5031849;28;20169;-88
2023/09/10 05:10:21;;;;;;;99.70;64.80;;;18.20;90.90;;;;;;5033608;28;20180;-88
2023/09/10 05:12:50;;;;;;;;;;;18.20;90.90;;;;;;5032574;28;20035;-87
2023/09/10 05:15:15;;;;;;;98.30;61.55;;;18.20;91.00;;;;;;5032479;28;20214;-86
2023/09/10 05:17:41;;;;;;;102.70;67.00;;;18.30;90.90;;;;;;5032384;28;20497;-87
2023/09/10 05:20:08;;;;;;;106.38;70.60;;;18.20;90.90;;;;;;5031921;28;20278;-87
2023/09/10 05:22:33;;;;;;;104.55;68.65;;;18.20;90.90;;;;;;5031797;28;20188;-88
2023/09/10 05:24:59;;;;;;;101.97;66.97;;;18.30;90.90;;;;;;5031983;28;20192;-87
2023/09/10 05:27:24;;;;;;;103.30;63.55;;;18.30;90.80;;;;;;5035457;28;20173;-89
2023/09/10 05:29:50;;;;;;;100.07;64.30;;;18.20;90.80;;;;;;5037017;28;20208;-88
2023/09/10 05:32:15;;;;;;;99.80;63.20;;;18.20;90.90;;;;;;5036797;28;20173;-87
2023/09/10 05:34:41;;;;;;;106.78;66.15;;;18.00;91.00;;;;;;5035908;28;20220;-87
2023/09/10 05:37:06;;;;;;;113.45;68.43;;;18.00;91.30;;;;;;5037607;28;20185;-88
2023/09/10 05:39:32;;;;;;;109.53;68.40;;;18.10;91.30;;;;;;5038181;28;20247;-88
2023/09/10 05:41:57;;;;;;;111.93;69.25;;;18.20;91.40;;;;;;5036305;28;20555;-88
2023/09/10 05:44:23;;;;;;;116.13;69.72;;;18.20;91.40;;;;;;5036767;28;20267;-88
2023/09/10 05:46:50;;;;;;;115.88;73.00;;;18.30;91.30;;;;;;5036405;28;20713;-87
2023/09/10 05:49:15;;;;;;;110.82;70.43;;;18.40;91.30;;;;;;5035905;28;20180;-89
2023/09/10 05:51:41;;;;;;;114.22;69.00;;;18.40;91.10;;;;;;5036773;28;20209;-88
2023/09/10 05:54:07;;;;;;;111.90;67.00;;;18.50;91.10;;;;;;5036767;28;20297;-89
2023/09/10 05:56:32;;;;;;;119.30;67.88;;;18.50;90.90;;;;;;5035230;28;20183;-88
2023/09/10 05:58:58;;;;;;;108.25;68.30;;;18.50;90.80;;;;;;5034981;28;20204;-88
2023/09/10 06:01:23;;;;;;;103.22;65.65;;;18.50;90.80;;;;;;5034911;28;20605;-88
2023/09/10 06:03:49;;;;;;;108.53;66.72;;;18.50;90.90;;;;;;5034773;28;20215;-88
2023/09/10 06:06:14;;;;;;;115.80;68.10;;;18.50;90.80;;;;;;5034773;28;20200;-88
2023/09/10 06:08:40;;;;;;;110.45;69.20;;;18.50;90.70;;;;;;5034788;28;20519;-88
2023/09/10 06:11:05;;;;;;;125.97;81.87;;;18.60;90.70;;;;;;5034503;28;20417;-87
2023/09/10 06:13:31;;;;;;;113.00;73.85;;;18.60;90.70;;;;;;5034813;28;20208;-88
2023/09/10 06:15:58;;;;;;;107.50;68.43;;;18.60;90.50;;;;;;5034933;28;20177;-89
2023/09/10 06:18:23;;;;;;;116.43;70.95;;;18.60;90.40;;;;;;5034700;28;20416;-88
2023/09/10 06:20:48;;;;;;;116.60;71.75;;;18.50;90.40;;;;;;5034965;28;20453;-88
2023/09/10 06:23:14;;;;;;;110.35;68.32;;;18.70;90.50;;;;;;5035974;28;20203;-87
2023/09/10 06:25:40;;;;;;;112.63;69.10;;;18.60;90.40;;;;;;5035501;28;20180;-88
2023/09/10 06:28:06;;;;;;;115.55;69.55;;;18.70;90.40;;;;;;5034432;28;20279;-88
2023/09/10 06:30:32;;;;;;;114.10;71.30;;;18.70;90.40;;;;;;5033888;28;20198;-88
2023/09/10 06:32:57;;;;;;;110.70;67.75;;;18.70;90.20;;;;;;5036103;28;20719;-88
2023/09/10 06:35:23;;;;;;;112.50;69.32;;;18.70;90.20;;;;;;5034554;28;20254;-88
2023/09/10 06:37:48;;;;;;;114.63;71.75;;;18.70;90.10;;;;;;5034453;28;20611;-88
2023/09/10 06:40:15;;;;;;;114.47;70.10;;;18.70;90.20;;;;;;5034249;28;20196;-89
2023/09/10 06:42:40;;;;;;;108.82;70.43;;;18.70;90.10;;;;;;5035534;28;20164;-88
2023/09/10 06:45:06;;;;;;;119.28;71.53;;;18.60;89.90;;;;;;5034087;28;20239;-88
2023/09/10 06:47:31;;;;;;;112.32;67.85;;;18.50;90.00;;;;;;5034011;28;20177;-88
2023/09/10 06:49:57;;;;;;;117.35;68.93;;;18.60;90.10;;;;;;5035656;28;20201;-89
2023/09/10 06:52:22;;;;;;;113.13;69.80;;;18.60;90.10;;;;;;5035085;28;20291;-89
2023/09/10 06:54:48;;;;;;;101.32;66.18;;;18.70;90.10;;;;;;5034126;28;20211;-88
2023/09/10 06:57:14;;;;;;;110.10;66.22;;;18.70;90.10;;;;;;5033893;28;20180;-88
2023/09/10 06:59:39;;;;;;;106.82;65.95;;;18.70;90.00;;;;;;5033681;28;20192;-88
2023/09/10 07:02:06;;;;;;;106.10;64.47;;;18.70;89.90;;;;;;5033716;28;20259;-88
2023/09/10 07:04:31;;;;;;;96.70;60.85;;;18.80;90.10;;;;;;5033622;28;20266;-88
2023/09/10 07:06:57;;;;;;;92.03;61.63;;;18.80;89.90;;;;;;5034205;28;20644;-88
2023/09/10 07:09:23;;;;;;;95.50;63.42;;;18.80;89.70;;;;;;5033740;28;20207;-88
2023/09/10 07:11:50;;;;;;;94.93;62.25;;;18.80;89.70;;;;;;5033686;28;20208;-88
2023/09/10 07:14:16;;;;;;;105.95;65.60;;;18.90;89.70;;;;;;5033522;28;20645;-88
2023/09/10 07:16:42;;;;;;;88.90;60.28;;;19.00;89.70;;;;;;5033965;28;20212;-87
2023/09/10 07:19:07;;;;;;;92.53;60.03;;;19.00;89.30;;;;;;5033787;28;20607;-88
2023/09/10 07:21:33;;;;;;;97.28;62.33;;;18.90;89.00;;;;;;5033690;28;20172;-87
2023/09/10 07:23:58;;;;;;;98.05;61.55;;;19.00;89.00;;;;;;5034627;28;20184;-88
2023/09/10 07:26:24;;;;;;;90.43;61.10;;;19.00;89.10;;;;;;5033415;28;20168;-88
2023/09/10 07:28:50;;;;;;;87.13;56.80;;;19.10;89.20;;;;;;5034717;28;20671;-88
2023/09/10 07:31:15;;;;;;;79.82;56.08;;;19.10;89.30;;;;;;5033513;28;20173;-88
2023/09/10 07:33:41;;;;;;;85.75;56.75;;;19.00;88.90;;;;;;5033575;28;20192;-88
2023/09/10 07:36:06;;;;;;;84.22;54.10;;;19.00;89.10;;;;;;5033397;28;20670;-89
2023/09/10 07:38:32;;;;;;;86.45;57.00;;;18.90;89.00;;;;;;5033298;28;20189;-88
2023/09/10 07:40:57;;;;;;;73.70;57.85;;;18.90;88.90;;;;;;5034842;28;20176;-88
2023/09/10 07:43:23;;;;;;;85.47;61.47;;;18.80;88.90;;;;;;5033346;28;20231;-88
2023/09/10 07:45:49;;;;;;;85.57;61.78;;;18.90;88.60;;;;;;5033239;28;20214;-88
2023/09/10 07:48:15;;;;;;;78.15;55.30;;;19.00;88.60;;;;;;5033972;28;20667;-88
2023/09/10 07:50:41;;;;;;;78.13;55.13;;;19.10;88.40;;;;;;5033332;28;20652;-88
2023/09/10 07:53:07;;;;;;;76.72;52.97;;;19.20;88.20;;;;;;5034367;28;20200;-89
2023/09/10 07:55:35;;;;;;;73.50;53.65;;;19.10;88.00;;;;;;5034061;28;20194;-88
2023/09/10 07:58:00;;;;;;;75.10;54.58;;;19.20;87.70;;;;;;5032712;28;20176;-89
2023/09/10 08:00:26;;;;;;;81.18;55.67;;;19.00;87.40;;;;;;5033819;28;20275;-88
2023/09/10 08:02:51;;;;;;;76.68;55.33;;;19.10;87.20;;;;;;5034270;28;20165;-88
2023/09/10 08:05:17;;;;;;;76.43;53.65;;;19.10;87.40;;;;;;5032706;28;20180;-88
2023/09/10 08:07:43;;;;;;;74.75;52.60;;;19.30;87.40;;;;;;5032854;28;20174;-88
2023/09/10 08:10:09;;;;;;;76.07;54.38;;;19.20;87.00;;;;;;5032894;28;20575;-88
2023/09/10 08:12:34;;;;;;;75.28;53.83;;;19.20;86.80;;;;;;5033110;28;20173;-88
2023/09/10 08:15:00;;;;;;;71.15;51.20;;;19.20;86.60;;;;;;5032832;28;20578;-88
2023/09/10 08:17:25;;;;;;;72.95;52.58;;;19.40;86.50;;;;;;5032791;28;20173;-88
2023/09/10 08:19:51;;;;;;;66.55;48.83;;;19.60;86.20;;;;;;5032597;28;20204;-88
2023/09/10 08:22:17;;;;;;;72.40;47.78;;;19.70;86.10;;;;;;5033876;28;20165;-88
2023/09/10 08:24:42;;;;;;;64.80;47.75;;;19.90;86.10;;;;;;5032544;28;20190;-88
2023/09/10 08:27:12;;;;;;;63.03;46.78;;;19.60;85.30;;;;;;5032670;28;20215;-88
2023/09/10 08:29:38;;;;;;;69.95;50.35;;;19.70;86.10;;;;;;5034252;28;20176;-88
2023/09/10 08:32:03;;;;;;;71.97;51.78;;;19.70;85.40;;;;;;5032687;28;20181;-88
2023/09/10 08:34:29;;;;;;;71.10;50.95;;;20.00;85.10;;;;;;5033775;28;20572;-88
2023/09/10 08:36:55;;;;;;;69.07;50.47;;;19.90;84.90;;;;;;5033954;28;20595;-88
2023/09/10 08:39:20;;;;;;;64.85;49.55;;;19.90;84.80;;;;;;5032251;28;20279;-88
2023/09/10 08:42:01;;;;;;;72.30;54.05;;;19.80;83.80;;;;;;5032733;28;20165;-87
2023/09/10 08:44:29;;;;;;;68.72;53.42;;;20.00;84.60;;;;;;5032527;28;20192;-88
2023/09/10 08:46:59;;;;;;;62.38;50.28;;;20.20;84.30;;;;;;5034360;28;20247;-88
2023/09/10 08:49:27;;;;;;;62.90;48.38;;;20.30;83.90;;;;;;5033772;28;20207;-88
2023/09/10 08:51:53;;;;;;;59.35;47.55;;;20.40;83.20;;;;;;5033639;28;20165;-88
2023/09/10 08:54:19;;;;;;;72.03;50.47;;;20.50;82.90;;;;;;5032048;28;20200;-88
2023/09/10 08:56:44;;;;;;;61.97;47.28;;;20.50;82.60;;;;;;5032188;28;20554;-88
2023/09/10 08:59:11;;;;;;;67.32;48.72;;;20.70;82.60;;;;;;5032121;28;20207;-88
2023/09/10 09:01:37;;;;;;;57.38;46.25;;;20.70;82.30;;;;;;5035198;28;20266;-88
2023/09/10 09:04:03;;;;;;;55.05;42.58;;;20.80;82.50;;;;;;5037448;28;20208;-87
2023/09/10 09:06:33;;;;;;;55.95;45.83;;;20.90;82.10;;;;;;5037463;28;20168;-87
2023/09/10 09:09:05;;;;;;;57.08;45.67;;;20.90;81.00;;;;;;5036135;28;20173;-88
2023/09/10 09:11:35;;;;;;;58.85;46.72;;;20.70;81.90;;;;;;5036328;28;20177;-88
2023/09/10 09:14:02;;;;;;;60.85;48.13;;;20.60;82.10;;;;;;5036574;28;20192;-87
2023/09/10 09:16:28;;;;;;;60.45;47.38;;;20.30;82.80;;;;;;5037386;28;20263;-88
2023/09/10 09:18:55;;;;;;;59.20;46.22;;;20.60;82.70;;;;;;5035871;28;20283;-88
2023/09/10 09:21:23;;;;;;;52.10;44.75;;;20.80;82.30;;;;;;5037033;28;20179;-88
2023/09/10 09:23:59;;;;;;;62.42;48.13;;;21.10;81.70;;;;;;5037132;28;20188;-88
2023/09/10 09:26:26;;;;;;;53.97;43.97;;;21.00;81.20;;;;;;5035860;28;20609;-88
2023/09/10 09:28:55;;;;;;;57.17;45.05;;;21.30;81.00;;;;;;5035710;28;20216;-90
2023/09/10 09:31:21;;;;;;;52.90;45.30;;;21.20;80.70;;;;;;5037362;28;20179;-88
2023/09/10 09:33:47;;;;;;;52.63;43.63;;;21.40;81.40;;;;;;5035724;28;20200;-88
2023/09/10 09:36:12;;;;;;;47.83;42.00;;;21.60;80.90;;;;;;5035656;28;20180;-88
2023/09/10 09:38:43;;;;;;;54.22;45.20;;;21.70;80.20;;;;;;5035615;28;20176;-88
2023/09/10 09:41:09;;;;;;;58.35;52.05;;;21.40;79.90;;;;;;5035929;28;20188;-88
2023/09/10 09:43:35;;;;;;;54.88;49.03;;;21.40;80.30;;;;;;5036882;28;20188;-88
2023/09/10 09:46:01;;;;;;;48.75;42.58;;;21.60;79.60;;;;;;5035488;28;20172;-88
2023/09/10 09:48:27;;;;;;;50.17;42.83;;;21.70;78.40;;;;;;5036620;28;20172;-88
2023/09/10 09:50:52;;;;;;;50.83;44.30;;;21.80;78.50;;;;;;5035487;28;20177;-88
2023/09/10 09:53:18;;;;;;;49.38;43.70;;;21.80;77.80;;;;;;5035584;28;20199;-88
2023/09/10 09:55:44;;;;;;;54.90;44.17;;;22.00;78.70;;;;;;5035295;28;20192;-88
2023/09/10 09:58:11;;;;;;;49.17;42.78;;;21.80;78.60;;;;;;5036570;28;20169;-88
2023/09/10 10:00:37;;;;;;;51.25;42.17;;;22.00;78.10;;;;;;5034948;28;20204;-88
2023/09/10 10:03:04;;;;;;;51.10;42.03;;;22.30;78.10;;;;;;5034928;28;20279;-88
2023/09/10 10:05:32;;;;;;;43.58;38.75;;;22.30;77.50;;;;;;5036499;28;20161;-88
2023/09/10 10:07:58;;;;;;;45.60;40.63;;;22.70;77.60;;;;;;5035440;28;20177;-89
2023/09/10 10:10:24;;;;;;;52.55;47.22;;;22.70;76.40;;;;;;5035265;28;20565;-88
2023/09/10 10:12:52;;;;;;;53.55;47.72;;;22.70;76.70;;;;;;5034818;28;20176;-88
2023/09/10 10:15:19;;;;;;;53.80;48.40;;;22.90;77.00;;;;;;5034761;28;20219;-88
2023/09/10 10:17:45;;;;;;;44.95;40.20;;;23.00;74.70;;;;;;5034756;28;20187;-88
2023/09/10 10:20:12;;;;;;;45.22;40.53;;;22.90;74.20;;;;;;5034629;28;20203;-88
2023/09/10 10:22:39;;;;;;;41.15;36.80;;;22.80;74.40;;;;;;5034607;28;20181;-88
2023/09/10 10:25:05;;;;;;;43.63;39.05;;;22.80;75.90;;;;;;5034549;28;20196;-88
2023/09/10 10:27:33;;;;;;;42.90;38.53;;;22.90;76.50;;;;;;5035079;28;20256;-89
2023/09/10 10:29:59;;;;;;;45.58;41.10;;;23.10;75.80;;;;;;5034378;28;20176;-88
2023/09/10 10:32:27;;;;;;;45.85;41.03;;;23.30;73.60;;;;;;5034474;28;20252;-88
2023/09/10 10:34:59;;;;;;;46.20;41.35;;;23.30;73.90;;;;;;5034170;28;20211;-88
2023/09/10 10:37:30;;;;;;;45.00;40.33;;;23.30;72.70;;;;;;5034725;28;20582;-89
2023/09/10 10:40:11;;;;;;;41.95;37.83;;;23.50;73.30;;;;;;5035253;28;20227;-89
2023/09/10 10:42:54;;;;;;;42.80;38.53;;;23.60;72.90;;;;;;5035440;28;20160;-89
2023/09/10 10:45:20;;;;;;;42.50;38.17;;;23.70;72.70;;;;;;5034094;28;20180;-89
2023/09/10 10:47:47;;;;;;;42.97;38.67;;;23.70;73.00;;;;;;5034124;28;20177;-88
2023/09/10 10:50:18;;;;;;;40.72;36.70;;;23.70;72.40;;;;;;5034032;28;20268;-89
2023/09/10 10:53:04;;;;;;;37.92;34.22;;;24.00;71.70;;;;;;5033977;28;20191;-89
2023/09/10 10:55:30;;;;;;;40.33;36.47;;;24.30;71.00;;;;;;5035189;28;20157;-89
2023/09/10 10:57:56;;;;;;;41.33;37.25;;;24.30;70.30;;;;;;5033725;28;20267;-89
2023/09/10 11:00:22;;;;;;;38.75;34.85;;;24.00;71.70;;;;;;5034916;28;20753;-89
2023/09/10 11:03:06;;;;;;;34.73;31.47;;;24.20;72.80;;;;;;5034911;28;20176;-89
2023/09/10 11:06:12;;;;;;;;;;;24.30;71.70;;;;;;5034032;28;20231;-89
2023/09/10 11:08:39;;;;;;;40.07;36.03;;;24.60;71.20;;;;;;5034584;28;20192;-89
2023/09/10 11:11:10;;;;;;;37.57;33.70;;;24.20;69.20;;;;;;5034863;28;20674;-89
2023/09/10 11:14:01;;;;;;;39.05;35.00;;;24.30;70.60;;;;;;5034805;28;20255;-89
2023/09/10 11:16:30;;;;;;;;;;;24.30;70.60;;;;;;5033507;28;20283;-88
2023/09/10 11:18:56;;;;;;;35.17;31.75;;;24.40;69.40;;;;;;5033532;28;20425;-89
2023/09/10 11:21:36;;;;;;;39.33;34.40;;;24.60;69.00;;;;;;5033815;28;20197;-89
2023/09/10 11:24:13;;;;;;;36.95;33.35;;;24.50;70.30;;;;;;5034015;28;20195;-89
2023/09/10 11:26:39;;;;;;;43.28;38.97;;;25.00;69.20;;;;;;5033361;28;20305;-89
2023/09/10 11:29:04;;;;;;;;;;;25.00;67.00;;;;;;5033247;28;20263;-89
2023/09/10 11:31:38;;;;;;;37.53;33.47;;;25.00;68.10;;;;;;5034435;28;20343;-89
2023/09/10 11:34:22;;;;;;;41.38;37.33;;;25.20;68.30;;;;;;5034359;28;20210;-88
2023/09/10 11:37:02;;;;;;;43.78;39.15;;;25.20;67.10;;;;;;5033200;28;20183;-89
2023/09/10 11:39:29;;;;;;;45.78;41.28;;;25.40;66.00;;;;;;5033495;28;20038;-89
2023/09/10 11:41:56;;;;;;;43.10;39.00;;;25.60;64.90;;;;;;5033165;28;20184;-89
2023/09/10 11:44:22;;;;;;;40.97;37.15;;;25.20;66.30;;;;;;5034479;28;20215;-89
2023/09/10 11:46:49;;;;;;;39.08;35.55;;;25.50;68.10;;;;;;5034067;28;20645;-89
2023/09/10 11:49:15;;;;;;;42.05;37.72;;;25.60;66.70;;;;;;5034020;28;20256;-89
2023/09/10 11:51:42;;;;;;;40.97;37.17;;;25.60;64.70;;;;;;5032719;28;20181;-89
2023/09/10 11:54:08;;;;;;;44.05;39.55;;;25.60;64.60;;;;;;5032663;28;20200;-89
2023/09/10 11:56:34;;;;;;;;;;;25.80;65.90;;;;;;5033135;28;20074;-88
2023/09/10 11:59:00;;;;;;;43.77;39.67;;;25.80;65.00;;;;;;5032725;28;19909;-89
2023/09/10 12:01:26;;;;;;;43.25;39.25;;;25.80;66.70;;;;;;5032582;28;20192;-89
2023/09/10 12:03:51;;;;;;;43.60;39.60;;;25.90;66.40;;;;;;5032651;28;20708;-89
2023/09/10 12:06:17;;;;;;;44.10;39.80;;;26.20;65.90;;;;;;5033797;28;20762;-90
2023/09/10 12:08:44;;;;;;;44.80;40.40;;;26.30;65.10;;;;;;5032877;28;19913;-89
2023/09/10 12:11:11;;;;;;;95.35;48.10;;;26.00;66.80;;;;;;5033911;28;20636;-89
2023/09/10 12:13:38;;;;;;;;;;;26.20;66.00;;;;;;5032731;28;20200;-89
2023/09/10 12:16:04;;;;;;;;;;;26.30;65.10;;;;;;5032778;28;20280;-89
2023/09/10 12:18:29;;;;;;;46.35;41.67;;;26.30;66.20;;;;;;5032504;28;19905;-89
2023/09/10 12:20:58;;;;;;;46.13;41.87;;;26.20;65.30;;;;;;5032255;28;20208;-88
2023/09/10 12:23:23;;;;;;;;;;;26.30;65.10;;;;;;5032711;28;20254;-89
2023/09/10 12:25:56;;;;;;;;;;;26.20;65.30;;;;;;5032738;28;19916;-89
2023/09/10 12:28:22;;;;;;;;;;;26.40;64.20;;;;;;5032870;28;19909;-89
2023/09/10 12:30:48;;;;;;;;;;;26.60;64.40;;;;;;5032776;28;19909;-89
2023/09/10 12:33:14;;;;;;;;;;;26.40;64.60;;;;;;5032596;28;19935;-89